Southey, Canada
Current Conditions -  °F | °C
As of 3:00 AM on Monday 20 Oct 2014 (Local Time) from CYQR Reporting Station
Clear Clear  
Wind Chill: 30°   Ceiling: Unl
Heat Index: 37°   Visibility: 15mi
Dew Point: 36°   Wind: 10mph
Humidity: 93%   Direction: 110°ESE
Pressure: 29.93"   Gusts: NA
Location:  50.93°N, 104.5°W
Report Text: CYQR 200900Z 11009KT 15SM SKC 03/02 A2993 RMK SLP146
Loading
Personal Weather Stations






























Interactive Weather Map
Tropical Storm Tracking
New forecast layout! Learn more

10-Day Weather Forecast

Advertisements
Track Severe Weather on mobile